To NAV CANADA Home Page Login to a new session Search on AWWS site Disclaimer Vers la page française équivalente Tips FAQ What's new on the site To the Forecasts and Observations / NOTAM section To "File a Flight Plan" website Publications and other links Update of the User's profile FIC Telephone Numbers My Weather Data Folder Route Weather Data Regional Weather Data Local Weather Data To the Forecasts and Observations / NOTAM section
Request Generated 03/18/2019 at 20:23:37 UTC . Weather information available at that time is displayed.

METAR/TAF

CALGARY/YYC CALGARY INTL/AB    

METAR CYYC 182000Z 35008KT 40SM FEW300 11/M06 A3025 RMK CI2 SLP274 DENSITY ALT 3700FT=
METAR CYYC 181900Z 33010KT 40SM FEW300 11/M09 A3026 RMK CI1 SLP278 DENSITY ALT 3700FT=
METAR CYYC 181800Z 34006KT 40SM SCT300 10/M07 A3027 RMK CI3 SLP284=

TAF CYYC 181738Z 1818/1918 31010KT P6SM FEW300
BECMG 1820/1822 36008KT
FM190100 18005KT P6SM SKC
BECMG 1908/1910 25005KT
RMK NXT FCST BY 182100Z=
Your time UTC time
Weather data provided by Environment Canada and NAV CANADA